Time;durP1;ratioP1;P1;durP2;ratioP2;P2;SDS_P1;SDS_P2;PMS_P1;PMS_P2;Temp;Humidity;BMP_temperature;BMP_pressure;BME280_temperature;BME280_humidity;BME280_pressure;Samples;Min_cycle;Max_cycle;Signal;HPM_P1;HPM_P2
2022/05/27 00:01:31;;;;;;;4.43;2.30;;;12.10;99.90;;;;;;4972017;28;20034;-79
2022/05/27 00:03:59;;;;;;;6.35;2.35;;;12.10;99.90;;;;;;4972111;28;20026;-78
2022/05/27 00:06:25;;;;;;;4.30;2.05;;;12.10;99.90;;;;;;4972589;28;20034;-78
2022/05/27 00:08:51;;;;;;;3.38;2.25;;;12.00;99.90;;;;;;4971148;28;20397;-79
2022/05/27 00:11:17;;;;;;;5.63;2.50;;;12.00;99.90;;;;;;4972059;28;20027;-79
2022/05/27 00:13:43;;;;;;;5.00;2.35;;;11.90;99.90;;;;;;4972298;28;20023;-78
2022/05/27 00:16:10;;;;;;;6.55;2.25;;;11.90;99.90;;;;;;4971501;28;20053;-79
2022/05/27 00:18:36;;;;;;;4.10;2.25;;;11.90;99.90;;;;;;4971735;28;20030;-79
2022/05/27 00:21:02;;;;;;;4.78;2.03;;;11.90;99.90;;;;;;4971750;28;20342;-79
2022/05/27 00:23:28;;;;;;;3.25;1.95;;;11.80;99.90;;;;;;4971838;28;20034;-78
2022/05/27 00:25:53;;;;;;;3.97;2.03;;;11.80;99.90;;;;;;4971698;28;20031;-78
2022/05/27 00:28:19;;;;;;;3.22;1.80;;;11.80;99.90;;;;;;4971891;28;20035;-79
2022/05/27 00:30:45;;;;;;;3.72;2.10;;;11.80;99.90;;;;;;4971535;28;20582;-78
2022/05/27 00:33:11;;;;;;;2.70;2.20;;;11.80;99.90;;;;;;4972534;28;20120;-78
2022/05/27 00:35:36;;;;;;;2.72;2.03;;;11.70;99.90;;;;;;4971376;28;20086;-79
2022/05/27 00:38:02;;;;;;;5.00;2.28;;;11.70;99.90;;;;;;4971436;28;20031;-78
2022/05/27 00:40:38;;;;;;;6.43;2.20;;;11.70;99.90;;;;;;4971016;28;20050;-79
2022/05/27 00:43:05;;;;;;;2.60;1.80;;;11.70;99.90;;;;;;4971519;28;20053;-78
2022/05/27 00:45:34;;;;;;;4.45;2.40;;;11.60;99.90;;;;;;4971385;28;20039;-78
2022/05/27 00:48:01;;;;;;;6.15;2.35;;;11.60;99.90;;;;;;4971129;28;20027;-79
2022/05/27 00:50:30;;;;;;;9.50;2.22;;;11.60;99.90;;;;;;4971411;28;20117;-79
2022/05/27 00:52:56;;;;;;;3.60;2.13;;;11.60;99.90;;;;;;4970916;28;20023;-78
2022/05/27 00:55:26;;;;;;;4.55;2.00;;;11.60;99.90;;;;;;4982338;28;20427;-78
2022/05/27 00:58:16;;;;;;;3.92;1.90;;;11.60;99.90;;;;;;4970759;28;20424;-79
2022/05/27 01:00:42;;;;;;;3.53;2.30;;;11.50;99.90;;;;;;4971689;28;20026;-78
2022/05/27 01:03:11;;;;;;;5.93;2.33;;;11.50;99.90;;;;;;4970778;28;20381;-79
2022/05/27 01:05:40;;;;;;;5.30;1.98;;;11.50;99.90;;;;;;4970954;28;20023;-79
2022/05/27 01:08:08;;;;;;;2.92;1.90;;;11.50;99.90;;;;;;4971309;28;20097;-78
2022/05/27 01:10:48;;;;;;;2.88;2.10;;;11.40;99.90;;;;;;4970713;28;20426;-79
2022/05/27 01:13:28;;;;;;;3.80;2.10;;;11.40;99.90;;;;;;4953863;28;20045;-78
2022/05/27 01:16:08;;;;;;;4.10;2.28;;;11.40;99.90;;;;;;4954017;28;20478;-79
2022/05/27 01:22:20;;;;;;;3.95;2.60;;;11.30;99.90;;;;;;4970411;28;20034;-79
2022/05/27 01:25:13;;;;;;;5.55;2.78;;;11.30;99.90;;;;;;4920721;28;20035;-78
2022/05/27 01:28:16;;;;;;;4.57;2.70;;;11.30;99.90;;;;;;4970224;28;20042;-79
2022/05/27 01:30:47;;;;;;;6.80;2.42;;;11.30;99.90;;;;;;4970915;28;20034;-79
2022/05/27 01:33:54;;;;;;;6.03;2.45;;;11.30;99.90;;;;;;4970550;28;20031;-78
2022/05/27 01:36:29;;;;;;;5.00;2.65;;;11.30;99.90;;;;;;4959855;28;20413;-79
2022/05/27 01:39:04;;;;;;;4.80;2.50;;;11.30;99.90;;;;;;4971041;28;20046;-78
2022/05/27 01:41:38;;;;;;;3.40;2.42;;;11.20;99.90;;;;;;4970365;28;20106;-79
2022/05/27 01:44:11;;;;;;;4.65;2.50;;;11.30;99.90;;;;;;4970468;28;20046;-78
2022/05/27 01:46:48;;;;;;;3.35;2.30;;;11.30;99.90;;;;;;4969842;28;20027;-78
2022/05/27 01:49:18;;;;;;;4.32;2.70;;;11.30;99.90;;;;;;4970175;28;20123;-78
2022/05/27 01:51:52;;;;;;;4.32;2.60;;;11.30;99.90;;;;;;4970866;28;20018;-78
2022/05/27 01:54:32;;;;;;;4.40;2.38;;;11.30;99.90;;;;;;4972875;28;20062;-78
2022/05/27 01:57:10;;;;;;;4.38;2.33;;;11.30;99.90;;;;;;4968497;28;20045;-78
2022/05/27 01:59:46;;;;;;;4.93;2.42;;;11.30;99.90;;;;;;4970347;28;20058;-80
2022/05/27 02:02:22;;;;;;;3.85;2.25;;;11.30;99.90;;;;;;4970455;28;20086;-80
2022/05/27 02:04:53;;;;;;;5.07;2.40;;;11.30;99.90;;;;;;4970186;28;20034;-80
2022/05/27 02:07:35;;;;;;;4.35;2.35;;;11.30;99.90;;;;;;4970395;28;20027;-80
2022/05/27 02:10:10;;;;;;;3.72;2.40;;;11.30;99.90;;;;;;4969887;28;20053;-80
2022/05/27 02:12:58;;;;;;;4.15;2.55;;;11.30;99.90;;;;;;4970283;28;20023;-80
2022/05/27 02:15:34;;;;;;;4.60;2.30;;;11.30;99.90;;;;;;4971007;28;20034;-80
2022/05/27 02:18:30;;;;;;;5.75;2.65;;;11.30;99.90;;;;;;4970689;28;20027;-79
2022/05/27 02:21:08;;;;;;;4.32;2.28;;;11.30;99.90;;;;;;4969473;28;20097;-79
2022/05/27 02:23:33;;;;;;;7.57;2.70;;;11.30;99.90;;;;;;4970322;28;20042;-79
2022/05/27 02:26:02;;;;;;;3.05;2.33;;;11.30;99.90;;;;;;4969920;28;20056;-79
2022/05/27 02:28:32;;;;;;;4.18;2.20;;;11.20;99.90;;;;;;4952358;28;20069;-79
2022/05/27 02:31:04;;;;;;;3.85;2.60;;;11.20;99.90;;;;;;4971914;28;20361;-80
2022/05/27 02:36:27;;;;;;;4.25;2.30;;;11.20;99.90;;;;;;4974221;28;20097;-79
2022/05/27 02:38:52;;;;;;;3.67;2.55;;;11.20;99.90;;;;;;4973809;28;20043;-79
2022/05/27 02:41:43;;;;;;;2.72;2.30;;;11.30;99.90;;;;;;4973746;28;20381;-79
2022/05/27 02:44:21;;;;;;;4.90;2.47;;;11.30;99.90;;;;;;4956201;28;20042;-79
2022/05/27 02:47:09;;;;;;;5.15;2.45;;;11.40;99.90;;;;;;4973661;28;20035;-80
2022/05/27 02:49:40;;;;;;;2.60;2.03;;;11.40;99.90;;;;;;4973912;28;20503;-80
2022/05/27 02:52:06;;;;;;;2.78;2.28;;;11.40;99.90;;;;;;4973756;28;20027;-80
2022/05/27 02:54:37;;;;;;;4.18;2.45;;;11.50;99.90;;;;;;4978980;28;20093;-80
2022/05/27 02:57:21;;;;;;;3.17;2.40;;;11.60;99.90;;;;;;4994729;28;20058;-80
2022/05/27 02:59:48;;;;;;;4.63;2.22;;;11.60;99.90;;;;;;4994612;28;20057;-80
2022/05/27 03:02:16;;;;;;;4.38;2.13;;;11.70;99.90;;;;;;4994527;28;20022;-80
2022/05/27 03:04:47;;;;;;;3.80;2.10;;;11.70;99.90;;;;;;4994607;28;20503;-80
2022/05/27 03:07:31;;;;;;;3.45;2.15;;;11.80;99.90;;;;;;4995064;28;20391;-80
2022/05/27 03:10:26;;;;;;;3.60;2.30;;;11.90;99.90;;;;;;4993895;28;20393;-80
2022/05/27 03:13:10;;;;;;;3.85;2.13;;;11.90;99.90;;;;;;4993736;28;20018;-80
2022/05/27 03:15:57;;;;;;;3.53;2.13;;;12.00;99.90;;;;;;4993634;28;20042;-80
2022/05/27 03:19:16;;;;;;;3.25;2.13;;;12.00;99.90;;;;;;4993701;28;20041;-80
2022/05/27 03:21:55;;;;;;;5.30;2.30;;;12.10;99.90;;;;;;4895222;29;20084;-80
2022/05/27 03:24:29;;;;;;;7.32;2.40;;;12.10;99.90;;;;;;4879419;29;20079;-80
2022/05/27 03:27:14;;;;;;;3.17;2.20;;;12.10;99.90;;;;;;4965596;28;20058;-80
2022/05/27 03:30:04;;;;;;;5.90;2.17;;;12.20;99.90;;;;;;4992892;28;20030;-80
2022/05/27 03:32:47;;;;;;;5.82;2.30;;;12.20;99.90;;;;;;4992714;28;20026;-80
2022/05/27 03:35:41;;;;;;;4.10;2.97;;;12.20;99.90;;;;;;4992502;28;20054;-80
2022/05/27 03:38:27;;;;;;;3.55;2.00;;;12.30;99.90;;;;;;4992771;28;20034;-80
2022/05/27 03:41:05;;;;;;;3.78;2.00;;;12.30;99.90;;;;;;4992398;28;20463;-80
2022/05/27 03:43:33;;;;;;;7.60;2.30;;;12.40;99.90;;;;;;4973955;28;20566;-80
2022/05/27 03:46:00;;;;;;;4.70;2.22;;;12.40;99.90;;;;;;4992289;28;20038;-80
2022/05/27 03:48:28;;;;;;;3.00;2.30;;;12.50;99.90;;;;;;4993012;28;20026;-80
2022/05/27 03:51:00;;;;;;;2.97;2.10;;;12.50;99.90;;;;;;4992318;28;20109;-80
2022/05/27 03:54:03;;;;;;;4.57;2.25;;;12.60;99.90;;;;;;4990945;28;20018;-80
2022/05/27 03:56:11;;;;;;;3.83;2.22;;;12.60;99.90;;;;;;4979363;28;20030;-80
2022/05/27 03:58:37;;;;;;;5.95;2.30;;;12.70;99.90;;;;;;4991667;28;20382;-80
2022/05/27 04:01:02;;;;;;;4.78;2.17;;;12.70;99.90;;;;;;4992237;28;20065;-80
2022/05/27 04:03:28;;;;;;;3.95;2.22;;;12.70;99.90;;;;;;4992158;28;20129;-80
2022/05/27 04:05:53;;;;;;;6.32;2.30;;;12.70;99.90;;;;;;4992020;28;20030;-80
2022/05/27 04:08:19;;;;;;;8.57;2.80;;;12.80;99.90;;;;;;4992087;28;20030;-80
2022/05/27 04:10:44;;;;;;;2.70;1.83;;;12.80;99.90;;;;;;4991690;28;20438;-80
2022/05/27 04:13:10;;;;;;;7.03;2.25;;;12.90;99.90;;;;;;4991457;28;20038;-80
2022/05/27 04:15:35;;;;;;;5.07;2.65;;;12.90;99.90;;;;;;4991441;28;20398;-80
2022/05/27 04:18:01;;;;;;;2.42;1.88;;;12.90;99.90;;;;;;4973897;28;20527;-80
2022/05/27 04:20:27;;;;;;;2.90;1.90;;;13.00;99.90;;;;;;4991159;28;20113;-80
2022/05/27 04:22:55;;;;;;;5.05;1.98;;;13.00;99.90;;;;;;4991426;28;20085;-80
2022/05/27 04:25:22;;;;;;;4.97;2.20;;;13.00;99.90;;;;;;4991844;28;20018;-80
2022/05/27 04:27:48;;;;;;;3.42;1.90;;;13.00;99.90;;;;;;4990762;28;20097;-80
2022/05/27 04:30:14;;;;;;;4.35;2.22;;;13.10;99.90;;;;;;4973646;28;20077;-80
2022/05/27 04:32:40;;;;;;;4.30;1.90;;;13.10;99.90;;;;;;4991273;28;20380;-80
2022/05/27 04:35:07;;;;;;;5.30;1.92;;;13.20;99.90;;;;;;4990669;28;20047;-80
2022/05/27 04:37:33;;;;;;;2.45;1.90;;;13.20;99.90;;;;;;4991170;28;20033;-80
2022/05/27 04:39:59;;;;;;;3.45;1.80;;;13.30;99.90;;;;;;4990877;28;20041;-80
2022/05/27 04:42:25;;;;;;;2.55;1.70;;;13.30;99.90;;;;;;4991428;28;20467;-80
2022/05/27 04:44:52;;;;;;;5.05;1.92;;;13.40;99.90;;;;;;4990811;28;20466;-80
2022/05/27 04:47:17;;;;;;;4.07;1.75;;;13.40;99.90;;;;;;4990719;28;20041;-80
2022/05/27 04:49:56;;;;;;;5.30;1.85;;;13.50;99.90;;;;;;4973205;28;20392;-80
2022/05/27 04:52:24;;;;;;;3.92;1.63;;;13.50;99.90;;;;;;4990654;28;20030;-80
2022/05/27 04:54:50;;;;;;;4.28;1.70;;;13.50;99.90;;;;;;4984869;28;20025;-80
2022/05/27 04:57:20;;;;;;;6.75;1.80;;;13.60;99.90;;;;;;4974863;28;20035;-79
2022/05/27 04:59:46;;;;;;;4.18;2.00;;;13.60;99.90;;;;;;4971275;28;20027;-80
2022/05/27 05:02:13;;;;;;;2.65;1.60;;;13.70;99.90;;;;;;4971181;28;20050;-80
2022/05/27 05:04:39;;;;;;;5.47;2.30;;;13.70;99.90;;;;;;4970981;28;20026;-80
2022/05/27 05:07:08;;;;;;;4.60;2.13;;;13.80;99.90;;;;;;4971449;28;20120;-80
2022/05/27 05:09:34;;;;;;;3.35;1.88;;;13.90;99.90;;;;;;4971096;28;20034;-80
2022/05/27 05:12:00;;;;;;;2.65;1.67;;;13.90;99.90;;;;;;4970862;28;20069;-80
2022/05/27 05:14:25;;;;;;;6.47;1.83;;;14.00;99.90;;;;;;4970657;28;20437;-81
2022/05/27 05:16:52;;;;;;;2.13;1.65;;;14.10;99.90;;;;;;4971117;28;20034;-81
2022/05/27 05:19:17;;;;;;;3.03;2.00;;;14.10;99.90;;;;;;4971518;28;20030;-80
2022/05/27 05:21:43;;;;;;;5.10;1.98;;;14.20;99.90;;;;;;4971541;28;20451;-80
2022/05/27 05:24:08;;;;;;;4.35;2.00;;;14.20;99.90;;;;;;4952914;28;20031;-80
2022/05/27 05:26:34;;;;;;;4.00;1.70;;;14.30;99.90;;;;;;4971207;28;20039;-81
2022/05/27 05:28:59;;;;;;;2.95;1.65;;;14.30;99.90;;;;;;4970381;28;20031;-81
2022/05/27 05:31:25;;;;;;;6.85;2.13;;;14.40;99.90;;;;;;4971156;28;20038;-80
2022/05/27 05:33:51;;;;;;;2.65;1.70;;;14.50;99.90;;;;;;4971346;28;20457;-79
2022/05/27 05:36:16;;;;;;;3.45;1.58;;;14.60;99.90;;;;;;4970843;28;20051;-80
2022/05/27 05:38:42;;;;;;;4.15;1.60;;;14.70;99.90;;;;;;4970704;28;20042;-81
2022/05/27 05:41:07;;;;;;;3.25;1.70;;;14.80;99.90;;;;;;4970697;28;20495;-81
2022/05/27 05:43:33;;;;;;;3.75;2.03;;;14.90;99.90;;;;;;4970627;28;20056;-81
2022/05/27 05:45:59;;;;;;;6.15;1.83;;;15.00;99.90;;;;;;4970463;28;20070;-81
2022/05/27 05:48:25;;;;;;;3.30;1.70;;;15.20;99.90;;;;;;4970758;28;20027;-81
2022/05/27 05:50:51;;;;;;;5.57;2.30;;;15.30;99.90;;;;;;4952957;28;20130;-81
2022/05/27 05:53:19;;;;;;;2.15;1.60;;;15.40;99.90;;;;;;4970396;28;20038;-81
2022/05/27 05:55:45;;;;;;;3.92;1.60;;;15.60;99.90;;;;;;4980491;28;20049;-81
2022/05/27 05:58:10;;;;;;;4.60;1.67;;;15.80;99.90;;;;;;4970200;28;20027;-81
2022/05/27 06:00:36;;;;;;;4.38;1.60;;;15.80;99.90;;;;;;4952644;28;20491;-81
2022/05/27 06:03:02;;;;;;;5.30;1.92;;;15.80;99.90;;;;;;4970676;28;20034;-81
2022/05/27 06:05:27;;;;;;;4.10;1.70;;;15.90;99.90;;;;;;4969439;28;20023;-81
2022/05/27 06:07:55;;;;;;;2.72;1.52;;;16.10;99.90;;;;;;4969820;28;20034;-81
2022/05/27 06:10:21;;;;;;;4.13;1.90;;;16.20;99.90;;;;;;4970144;28;20034;-81
2022/05/27 06:12:46;;;;;;;3.40;1.70;;;16.30;99.90;;;;;;4969806;28;20117;-81
2022/05/27 06:15:13;;;;;;;3.17;1.60;;;16.30;99.90;;;;;;4969446;28;20034;-81
2022/05/27 06:17:39;;;;;;;3.78;1.70;;;16.50;99.90;;;;;;4969688;28;20077;-81
2022/05/27 06:20:07;;;;;;;3.58;1.83;;;16.60;99.90;;;;;;4969622;28;20042;-81
2022/05/27 06:22:33;;;;;;;3.13;1.52;;;16.70;99.90;;;;;;4970449;28;20502;-81
2022/05/27 06:25:00;;;;;;;2.45;1.40;;;16.70;99.90;;;;;;4970015;28;20071;-80
2022/05/27 06:27:26;;;;;;;1.83;1.50;;;16.70;99.90;;;;;;4970149;28;20030;-81
2022/05/27 06:35:21;;;;;;;5.43;1.80;;;17.10;99.90;;;;;;4969414;28;20102;-82
2022/05/27 06:37:46;;;;;;;5.30;1.83;;;17.20;99.90;;;;;;4969958;28;20023;-81
2022/05/27 06:40:12;;;;;;;2.17;1.33;;;17.40;99.90;;;;;;4969975;28;20499;-80
2022/05/27 06:42:38;;;;;;;5.53;1.80;;;17.40;99.90;;;;;;4970604;28;20058;-80
2022/05/27 06:45:06;;;;;;;5.88;1.90;;;17.40;99.90;;;;;;4970652;28;20059;-80
2022/05/27 06:47:32;;;;;;;3.33;1.60;;;17.40;99.90;;;;;;4969649;28;20156;-80
2022/05/27 06:49:57;;;;;;;4.15;1.70;;;17.50;99.90;;;;;;4969887;28;20027;-80
2022/05/27 06:52:24;;;;;;;3.03;1.60;;;17.60;99.90;;;;;;4970229;28;20026;-80
2022/05/27 06:54:51;;;;;;;3.65;1.70;;;17.70;99.90;;;;;;4976726;28;20074;-80
2022/05/27 06:57:16;;;;;;;3.10;1.50;;;17.70;99.90;;;;;;4973608;28;20131;-79
2022/05/27 06:59:42;;;;;;;5.78;1.30;;;17.80;99.90;;;;;;4969839;28;20039;-80
2022/05/27 07:02:09;;;;;;;2.42;1.13;;;17.90;99.90;;;;;;4952688;28;20030;-79
2022/05/27 07:04:35;;;;;;;6.07;1.27;;;17.90;99.90;;;;;;4968815;28;20050;-79
2022/05/27 07:07:04;;;;;;;3.38;1.20;;;17.90;99.90;;;;;;4969445;28;20061;-80
2022/05/27 07:09:35;;;;;;;3.85;1.35;;;18.00;99.90;;;;;;4969446;28;20110;-80
2022/05/27 07:12:01;;;;;;;3.08;1.30;;;17.90;99.90;;;;;;4969649;28;20027;-80
2022/05/27 07:14:27;;;;;;;4.40;1.40;;;18.00;99.90;;;;;;4969345;28;20113;-80
2022/05/27 07:16:53;;;;;;;4.05;1.42;;;18.00;99.90;;;;;;4970917;28;20057;-79
2022/05/27 07:19:19;;;;;;;3.42;1.33;;;18.10;99.90;;;;;;4973623;28;20049;-79
2022/05/27 07:21:46;;;;;;;2.42;1.40;;;18.00;99.90;;;;;;4973571;28;20041;-80
2022/05/27 07:24:13;;;;;;;1.65;1.23;;;18.00;99.90;;;;;;4972966;28;20059;-80
2022/05/27 07:26:41;;;;;;;4.13;1.48;;;18.00;99.90;;;;;;4972646;28;20035;-79
2022/05/27 07:29:07;;;;;;;5.93;1.40;;;18.10;99.90;;;;;;4954714;28;20035;-79
2022/05/27 07:31:35;;;;;;;5.50;1.30;;;18.20;99.90;;;;;;4972713;28;20436;-79
2022/05/27 07:34:01;;;;;;;5.07;1.50;;;18.20;99.90;;;;;;4955276;28;20027;-77
2022/05/27 07:36:26;;;;;;;3.22;1.50;;;18.20;99.90;;;;;;4970567;28;20056;-77
2022/05/27 07:38:52;;;;;;;4.32;1.50;;;18.30;99.90;;;;;;4971876;28;20031;-80
2022/05/27 07:41:20;;;;;;;2.58;1.30;;;18.50;99.90;;;;;;4972744;28;20030;-77
2022/05/27 07:43:46;;;;;;;6.35;1.42;;;18.60;99.90;;;;;;4971979;28;20534;-77
2022/05/27 07:46:12;;;;;;;3.85;1.30;;;18.70;99.90;;;;;;4971270;28;20034;-77
2022/05/27 07:48:38;;;;;;;4.70;1.48;;;18.80;99.90;;;;;;4971680;28;20417;-77
2022/05/27 07:51:03;;;;;;;3.25;1.40;;;18.80;99.90;;;;;;4971790;28;20041;-77
2022/05/27 07:53:29;;;;;;;3.47;1.52;;;18.80;99.90;;;;;;4972822;28;20035;-77
2022/05/27 07:55:55;;;;;;;3.45;1.60;;;18.70;99.90;;;;;;4960876;28;20045;-77
2022/05/27 07:58:21;;;;;;;3.40;1.52;;;18.70;99.90;;;;;;4990926;28;20062;-78
2022/05/27 08:00:46;;;;;;;2.30;1.40;;;18.80;99.90;;;;;;4991316;28;20034;-77
2022/05/27 08:03:12;;;;;;;5.32;1.48;;;18.90;99.90;;;;;;4991215;28;20038;-78
2022/05/27 08:05:39;;;;;;;2.45;1.40;;;19.00;99.90;;;;;;4991160;28;20034;-77
2022/05/27 08:08:06;;;;;;;2.55;1.42;;;19.00;99.90;;;;;;4991311;28;20031;-77
2022/05/27 08:10:34;;;;;;;3.88;1.48;;;18.90;99.90;;;;;;4990626;28;20022;-78
2022/05/27 08:13:00;;;;;;;5.35;1.77;;;19.00;99.90;;;;;;4990742;28;20030;-78
2022/05/27 08:15:26;;;;;;;2.28;1.30;;;19.00;99.90;;;;;;4990600;28;20037;-77
2022/05/27 08:17:52;;;;;;;3.53;1.35;;;19.00;99.90;;;;;;4990722;28;20030;-77
2022/05/27 08:20:20;;;;;;;5.20;1.48;;;19.00;99.90;;;;;;4990438;28;20038;-76
2022/05/27 08:22:47;;;;;;;4.15;1.20;;;19.10;99.90;;;;;;4990004;28;20042;-78
2022/05/27 08:25:14;;;;;;;2.72;1.40;;;19.10;99.90;;;;;;4989928;28;20041;-76
2022/05/27 08:27:42;;;;;;;4.63;1.63;;;19.10;99.90;;;;;;4989985;28;20040;-77
2022/05/27 08:30:10;;;;;;;4.53;1.30;;;19.20;99.90;;;;;;4989623;28;20038;-76
2022/05/27 08:32:36;;;;;;;5.78;1.40;;;19.30;99.90;;;;;;4989940;28;20031;-76
2022/05/27 08:38:07;;;;;;;;;;;19.60;99.90;;;;;;4990892;28;20048;-76
2022/05/27 08:40:42;;;;;;;6.05;1.33;;;19.80;99.90;;;;;;4990022;28;19906;-75
2022/05/27 08:43:33;;;;;;;4.22;1.52;;;19.80;99.90;;;;;;4989359;28;20026;-75
2022/05/27 08:46:25;;;;;;;5.43;1.40;;;19.90;99.90;;;;;;4989742;28;20085;-76
2022/05/27 08:48:57;;;;;;;4.80;1.40;;;19.90;99.90;;;;;;4989537;28;20125;-78
2022/05/27 08:51:28;;;;;;;5.03;1.40;;;19.90;99.90;;;;;;4989958;28;20475;-78
2022/05/27 08:54:01;;;;;;;3.67;1.40;;;19.90;99.90;;;;;;4969726;28;20026;-76
2022/05/27 08:59:27;;;;;;;5.88;1.45;;;20.00;99.90;;;;;;4969483;28;20077;-75
2022/05/27 09:02:02;;;;;;;5.13;1.30;;;20.00;99.90;;;;;;4969249;28;20031;-76
2022/05/27 09:04:41;;;;;;;3.13;1.40;;;19.90;99.90;;;;;;4968121;28;20380;-76
2022/05/27 09:07:19;;;;;;;4.88;1.40;;;19.90;99.90;;;;;;4969686;28;20437;-75
2022/05/27 09:09:45;;;;;;;3.22;1.42;;;20.00;99.90;;;;;;4969575;28;20088;-75
2022/05/27 09:12:38;;;;;;;4.20;1.48;;;20.10;99.90;;;;;;4969028;28;20019;-75
2022/05/27 09:15:25;;;;;;;3.40;1.52;;;20.30;99.90;;;;;;4969575;28;20365;-76
2022/05/27 09:18:04;;;;;;;2.95;1.45;;;20.50;99.90;;;;;;4969777;28;20026;-78
2022/05/27 09:20:57;;;;;;;6.40;1.48;;;20.60;99.90;;;;;;4969312;28;20298;-76
2022/05/27 09:23:42;;;;;;;3.00;1.40;;;20.90;99.90;;;;;;4969341;28;20102;-75
2022/05/27 09:26:19;;;;;;;8.68;1.65;;;21.20;99.90;;;;;;4951434;28;20033;-76
2022/05/27 09:29:00;;;;;;;2.85;1.20;;;21.40;99.90;;;;;;4968882;28;20439;-76
2022/05/27 09:31:34;;;;;;;3.72;1.40;;;21.50;99.90;;;;;;4968891;28;20027;-75
2022/05/27 09:34:00;;;;;;;6.57;1.27;;;21.30;99.90;;;;;;4969145;28;20110;-76
2022/05/27 09:36:34;;;;;;;4.32;1.30;;;21.10;99.90;;;;;;4969145;28;20511;-75
2022/05/27 09:39:02;;;;;;;3.87;1.43;;;20.80;99.90;;;;;;4969517;28;20034;-75
2022/05/27 09:41:51;;;;;;;3.50;1.40;;;20.90;99.90;;;;;;4950763;28;20035;-76
2022/05/27 09:44:17;;;;;;;4.07;1.27;;;20.90;99.90;;;;;;4969130;28;20102;-76
2022/05/27 09:46:43;;;;;;;3.90;1.20;;;20.90;99.90;;;;;;4968561;28;20437;-75
2022/05/27 09:49:09;;;;;;;2.22;1.23;;;21.20;99.90;;;;;;4968017;28;20449;-76
2022/05/27 09:51:35;;;;;;;3.83;1.40;;;21.50;99.90;;;;;;4969140;28;20058;-76
2022/05/27 09:54:13;;;;;;;3.53;1.67;;;21.80;99.90;;;;;;4970853;28;20034;-76
2022/05/27 09:56:40;;;;;;;5.95;1.48;;;22.20;99.90;;;;;;4959641;28;20051;-76
2022/05/27 09:59:22;;;;;;;2.55;1.38;;;22.30;99.90;;;;;;4968665;28;20414;-76
2022/05/27 10:01:48;;;;;;;2.55;1.00;;;22.30;99.90;;;;;;4968691;28;20114;-77
2022/05/27 10:04:16;;;;;;;2.58;1.30;;;22.50;99.90;;;;;;4968780;28;20401;-76
2022/05/27 10:06:43;;;;;;;4.63;1.15;;;22.60;99.90;;;;;;4968304;28;20037;-76
2022/05/27 10:09:24;;;;;;;2.83;1.17;;;22.80;99.90;;;;;;4968164;28;20030;-76
2022/05/27 10:11:52;;;;;;;5.50;1.35;;;23.10;99.90;;;;;;4967189;28;20370;-76
2022/05/27 10:14:29;;;;;;;4.68;1.40;;;23.40;99.90;;;;;;4968557;28;20038;-76
2022/05/27 10:17:21;;;;;;;3.00;1.27;;;23.70;99.90;;;;;;4968707;28;20031;-76
2022/05/27 10:19:48;;;;;;;3.83;1.23;;;23.80;99.90;;;;;;4969580;28;20038;-77
2022/05/27 10:22:27;;;;;;;3.08;1.50;;;23.60;99.90;;;;;;4968474;28;20033;-78
2022/05/27 10:25:01;;;;;;;4.70;1.40;;;23.60;99.90;;;;;;4968426;28;20031;-76
2022/05/27 10:27:37;;;;;;;3.80;1.10;;;23.90;99.90;;;;;;4968104;28;20034;-76
2022/05/27 10:30:26;;;;;;;3.80;1.20;;;23.90;99.90;;;;;;4967845;28;20046;-76
2022/05/27 10:32:52;;;;;;;1.67;1.02;;;23.60;99.90;;;;;;4969143;28;20041;-76
2022/05/27 10:35:21;;;;;;;3.78;1.15;;;23.40;99.90;;;;;;4969086;28;20658;-75
2022/05/27 10:37:46;;;;;;;6.78;1.70;;;23.10;99.90;;;;;;4968901;28;20517;-77
2022/05/27 10:40:43;;;;;;;2.97;1.13;;;22.80;99.90;;;;;;4968511;28;20030;-77
2022/05/27 10:43:14;;;;;;;1.75;1.00;;;22.50;99.90;;;;;;4968366;28;20070;-77
2022/05/27 10:45:52;;;;;;;3.15;0.93;;;22.80;99.90;;;;;;4951116;28;20534;-77
2022/05/27 10:48:43;;;;;;;3.22;1.27;;;23.30;99.90;;;;;;4968318;28;20035;-76
2022/05/27 10:51:33;;;;;;;6.78;1.20;;;23.50;99.90;;;;;;4968600;28;20038;-78
2022/05/27 10:54:17;;;;;;;3.53;1.13;;;23.40;99.90;;;;;;4975024;28;20033;-79
2022/05/27 11:03:03;;;;;;;2.92;1.27;;;23.10;99.90;;;;;;4972551;28;20175;-78
2022/05/27 11:05:44;;;;;;;2.85;1.40;;;23.00;99.90;;;;;;4972495;28;20074;-77
2022/05/27 11:08:24;;;;;;;3.60;1.70;;;22.90;99.90;;;;;;4972100;28;20133;-78
2022/05/27 11:10:57;;;;;;;2.72;1.20;;;22.60;99.90;;;;;;4972469;28;20027;-78
2022/05/27 11:16:54;;;;;;;1.48;1.05;;;22.30;99.90;;;;;;4972192;28;20034;-76
2022/05/27 11:19:58;;;;;;;2.28;1.08;;;22.30;99.90;;;;;;4970175;28;20046;-78
2022/05/27 11:22:43;;;;;;;4.18;1.17;;;22.30;99.90;;;;;;4972503;28;20026;-78
2022/05/27 11:25:16;;;;;;;2.95;1.25;;;22.40;99.90;;;;;;4972896;28;20098;-78
2022/05/27 11:27:57;;;;;;;3.50;1.30;;;22.40;99.90;;;;;;4972273;28;20150;-78
2022/05/27 11:30:34;;;;;;;4.40;1.35;;;22.50;99.90;;;;;;4972027;28;20062;-78
2022/05/27 11:33:29;;;;;;;1.35;1.00;;;22.40;99.90;;;;;;4972075;28;20023;-78
2022/05/27 11:36:18;;;;;;;2.88;1.30;;;22.30;99.90;;;;;;4971521;28;20527;-78
2022/05/27 11:38:53;;;;;;;3.50;1.40;;;22.40;99.90;;;;;;4971222;28;20038;-78
2022/05/27 11:41:27;;;;;;;2.03;0.93;;;22.70;99.90;;;;;;4971597;28;20058;-78
2022/05/27 11:44:13;;;;;;;3.80;1.30;;;23.20;99.90;;;;;;4971581;28;20027;-78
2022/05/27 11:46:54;;;;;;;3.45;1.30;;;23.90;99.90;;;;;;4953970;28;20039;-78
2022/05/27 11:50:01;;;;;;;2.33;1.38;;;23.80;99.90;;;;;;4971848;28;20074;-77
2022/05/27 11:53:01;;;;;;;3.17;1.35;;;23.60;99.90;;;;;;4911742;29;20042;-78
2022/05/27 11:55:55;;;;;;;4.63;1.30;;;23.60;99.90;;;;;;4978410;28;20466;-76
2022/05/27 11:58:30;;;;;;;4.63;1.40;;;23.80;99.90;;;;;;4992078;28;20033;-76
2022/05/27 12:01:09;;;;;;;2.05;1.20;;;23.90;99.90;;;;;;4992413;28;20029;-77
2022/05/27 12:03:51;;;;;;;2.83;0.90;;;24.60;99.90;;;;;;4990935;28;20038;-77
2022/05/27 12:06:21;;;;;;;5.82;1.20;;;25.00;99.90;;;;;;4975461;28;20121;-77
2022/05/27 12:09:06;;;;;;;2.13;1.08;;;25.40;99.90;;;;;;4992770;28;20038;-77
2022/05/27 12:11:45;;;;;;;3.20;1.00;;;25.80;99.90;;;;;;4992098;28;20447;-77
2022/05/27 12:14:36;;;;;;;6.13;1.15;;;26.10;99.90;;;;;;4974170;28;20536;-77
2022/05/27 12:17:03;;;;;;;3.08;1.15;;;26.20;99.90;;;;;;4991509;28;20117;-77
2022/05/27 12:19:35;;;;;;;4.03;1.58;;;26.40;99.90;;;;;;4991454;28;20128;-76
2022/05/27 12:22:04;;;;;;;3.88;1.17;;;26.50;99.90;;;;;;4991308;28;20046;-77
2022/05/27 12:24:35;;;;;;;4.95;1.00;;;26.50;99.90;;;;;;4991310;28;20080;-76
2022/05/27 12:27:04;;;;;;;3.55;1.05;;;26.80;99.90;;;;;;4990464;28;20109;-76
2022/05/27 12:29:32;;;;;;;5.88;1.50;;;26.90;99.90;;;;;;4990994;28;20044;-76
2022/05/27 12:31:57;;;;;;;4.00;0.90;;;26.90;99.90;;;;;;4990490;28;20030;-76
2022/05/27 12:34:26;;;;;;;2.72;1.15;;;26.90;99.90;;;;;;4990105;28;20035;-76
2022/05/27 12:36:58;;;;;;;2.60;1.10;;;27.00;99.90;;;;;;4990417;28;20491;-76
2022/05/27 12:39:25;;;;;;;2.90;1.10;;;27.40;99.90;;;;;;4990589;28;20101;-77
2022/05/27 12:42:09;;;;;;;3.78;1.08;;;27.30;99.90;;;;;;4989874;28;20045;-76
2022/05/27 12:44:35;;;;;;;3.38;1.15;;;27.60;99.90;;;;;;4990253;28;20041;-76
2022/05/27 12:47:04;;;;;;;2.92;1.13;;;27.60;99.90;;;;;;4990332;28;20387;-76
2022/05/27 12:49:37;;;;;;;3.75;1.10;;;27.70;99.90;;;;;;4989674;28;20031;-76
2022/05/27 12:52:06;;;;;;;3.20;1.40;;;27.30;99.90;;;;;;4990410;28;20106;-76
2022/05/27 12:54:48;;;;;;;2.22;0.90;;;26.70;99.90;;;;;;4984191;28;20388;-76
2022/05/27 13:03:40;;;;;;;3.90;1.38;;;26.80;99.90;;;;;;4970583;28;20093;-76
2022/05/27 13:06:18;;;;;;;3.15;1.33;;;26.90;99.90;;;;;;4969965;28;20027;-77
2022/05/27 13:09:07;;;;;;;3.05;1.15;;;27.00;99.90;;;;;;4969644;28;20042;-77
2022/05/27 13:11:37;;;;;;;2.67;1.20;;;27.00;99.90;;;;;;4969668;28;20106;-75
2022/05/27 13:14:05;;;;;;;4.75;1.40;;;26.70;99.90;;;;;;4969630;28;20376;-75
2022/05/27 13:16:31;;;;;;;1.58;1.15;;;26.50;99.90;;;;;;4969228;28;20105;-76
2022/05/27 13:19:04;;;;;;;5.10;1.20;;;26.20;99.90;;;;;;4969424;28;20110;-76
2022/05/27 13:21:47;;;;;;;5.88;1.20;;;25.70;99.90;;;;;;4969980;28;20118;-76
2022/05/27 13:24:12;;;;;;;4.97;1.52;;;25.60;99.90;;;;;;4969154;28;20037;-76
2022/05/27 13:26:40;;;;;;;2.58;1.20;;;25.30;99.90;;;;;;4951045;28;20030;-76
2022/05/27 13:29:28;;;;;;;3.25;1.20;;;25.00;99.90;;;;;;4968911;28;20472;-76
2022/05/27 13:32:03;;;;;;;3.17;1.33;;;24.70;99.90;;;;;;4969490;28;20051;-75
2022/05/27 13:34:43;;;;;;;2.67;1.42;;;24.60;99.90;;;;;;4952103;28;20031;-75
2022/05/27 13:37:30;;;;;;;7.82;1.40;;;24.70;99.90;;;;;;4968681;28;20023;-75
2022/05/27 13:40:05;;;;;;;3.17;1.30;;;24.50;99.90;;;;;;4969136;28;20100;-76
2022/05/27 13:42:35;;;;;;;;;;;24.10;99.90;;;;;;4968987;28;20046;-77
2022/05/27 13:45:13;;;;;;;2.95;1.40;;;24.10;99.90;;;;;;4968579;28;19910;-77
2022/05/27 13:48:17;;;;;;;3.22;1.67;;;24.10;99.90;;;;;;4969206;28;20058;-77
2022/05/27 13:50:45;;;;;;;4.88;1.33;;;23.80;99.90;;;;;;4965587;28;20082;-77